createdAt,value
2016-03-14T00:00:14.917Z,1028.03
2016-03-14T00:01:14.920Z,1028.05
2016-03-14T00:02:14.923Z,1028.02
2016-03-14T00:03:14.941Z,1028.05
2016-03-14T00:04:14.944Z,1028.07
2016-03-14T00:05:14.947Z,1028.06
2016-03-14T00:06:14.964Z,1028.03
2016-03-14T00:07:14.952Z,1028.03
2016-03-14T00:08:14.955Z,1028.06
2016-03-14T00:09:14.973Z,1028.04
2016-03-14T00:10:14.975Z,1028.05
2016-03-14T00:11:14.978Z,1028.05
2016-03-14T00:12:14.981Z,1028.07
2016-03-14T00:13:14.983Z,1028.04
2016-03-14T00:14:14.986Z,1028.01
2016-03-14T00:15:14.989Z,1028
2016-03-14T00:16:15.007Z,1027.99
2016-03-14T00:17:15.011Z,1027.98
2016-03-14T00:18:15.013Z,1028.01
2016-03-14T00:19:15.016Z,1028.02
2016-03-14T00:20:15.018Z,1027.97
2016-03-14T00:21:15.021Z,1027.97
2016-03-14T00:22:15.038Z,1027.97
2016-03-14T00:23:15.041Z,1028.01
2016-03-14T00:24:15.044Z,1028
2016-03-14T00:25:15.062Z,1028.01
2016-03-14T00:26:15.065Z,1027.99
2016-03-14T00:27:15.052Z,1028
2016-03-14T00:28:15.071Z,1027.99
2016-03-14T00:29:15.073Z,1027.96
2016-03-14T00:30:15.076Z,1027.99
2016-03-14T00:31:15.079Z,1027.97
2016-03-14T00:32:15.081Z,1027.94
2016-03-14T00:33:15.084Z,1027.96
2016-03-14T00:34:15.103Z,1027.91
2016-03-14T00:35:15.105Z,1027.94
2016-03-14T00:36:15.109Z,1027.91
2016-03-14T00:37:15.111Z,1027.89
2016-03-14T00:38:15.114Z,1027.94
2016-03-14T00:39:15.131Z,1027.92
2016-03-14T00:40:15.134Z,1027.88
2016-03-14T00:41:15.136Z,1027.9
2016-03-14T00:42:15.139Z,1027.91
2016-03-14T00:43:15.142Z,1027.85
2016-03-14T00:44:15.145Z,1027.84
2016-03-14T00:45:15.147Z,1027.91
2016-03-14T00:46:15.150Z,1027.87
2016-03-14T00:47:15.169Z,1027.86
2016-03-14T00:48:15.171Z,1027.85
2016-03-14T00:49:15.174Z,1027.88
2016-03-14T00:50:15.177Z,1027.86
2016-03-14T00:51:15.179Z,1027.86
2016-03-14T00:52:15.198Z,1027.85
2016-03-14T00:53:15.201Z,1027.88
2016-03-14T00:54:15.203Z,1027.87
2016-03-14T00:55:15.206Z,1027.93
2016-03-14T00:56:15.224Z,1027.89
2016-03-14T00:57:15.212Z,1027.88
2016-03-14T00:58:15.234Z,1027.86
2016-03-14T00:59:15.679Z,1027.92
2016-03-14T01:00:15.236Z,1027.9
2016-03-14T01:01:16.837Z,1027.89
2016-03-14T01:02:15.250Z,1027.88
2016-03-14T01:03:15.253Z,1027.89
2016-03-14T01:04:15.255Z,1027.88
2016-03-14T01:05:15.258Z,1027.87
2016-03-14T01:06:15.277Z,1027.84
2016-03-14T01:07:15.263Z,1027.81
2016-03-14T01:08:15.283Z,1027.87
2016-03-14T01:09:15.285Z,1027.9
2016-03-14T01:10:15.288Z,1027.92
2016-03-14T01:11:15.290Z,1027.92
2016-03-14T01:12:15.293Z,1027.9
2016-03-14T01:13:15.311Z,1027.93
2016-03-14T01:14:15.313Z,1027.9
2016-03-14T01:15:15.316Z,1027.86
2016-03-14T01:16:15.318Z,1027.87
2016-03-14T01:17:15.321Z,1027.82
2016-03-14T01:18:15.341Z,1027.79
2016-03-14T01:19:15.343Z,1027.82
2016-03-14T01:20:15.345Z,1027.77
2016-03-14T01:21:15.363Z,1027.84
2016-03-14T01:22:15.351Z,1027.81
2016-03-14T01:23:15.353Z,1027.82
2016-03-14T01:24:15.371Z,1027.83
2016-03-14T01:25:15.374Z,1027.81
2016-03-14T01:26:15.376Z,1027.79
2016-03-14T01:27:15.379Z,1027.8
2016-03-14T01:28:15.382Z,1027.81
2016-03-14T01:29:15.385Z,1027.84
2016-03-14T01:30:15.388Z,1027.85
2016-03-14T01:31:15.406Z,1027.83
2016-03-14T01:32:15.409Z,1027.85
2016-03-14T01:33:15.411Z,1027.87
2016-03-14T01:34:15.414Z,1027.85
2016-03-14T01:35:15.417Z,1027.85
2016-03-14T01:36:15.435Z,1027.83
2016-03-14T01:37:15.438Z,1027.85
2016-03-14T01:38:15.441Z,1027.82
2016-03-14T01:39:15.459Z,1027.81
2016-03-14T01:40:15.446Z,1027.8
2016-03-14T01:41:15.449Z,1027.83
2016-03-14T01:42:15.452Z,1027.81
2016-03-14T01:43:15.469Z,1027.88
2016-03-14T01:44:15.472Z,1027.84
2016-03-14T01:45:15.475Z,1027.89
2016-03-14T01:46:15.477Z,1027.85
2016-03-14T01:47:15.496Z,1027.84
2016-03-14T01:48:15.483Z,1027.83
2016-03-14T01:49:15.501Z,1027.84
2016-03-14T01:50:15.504Z,1027.83
2016-03-14T01:51:15.507Z,1027.83
2016-03-14T01:52:15.509Z,1027.82
2016-03-14T01:53:15.512Z,1027.84
2016-03-14T01:54:15.530Z,1027.81
2016-03-14T01:55:15.534Z,1027.83
2016-03-14T01:56:15.536Z,1027.8
2016-03-14T01:57:15.539Z,1027.81
2016-03-14T01:58:15.542Z,1027.8
2016-03-14T01:59:15.559Z,1027.8
2016-03-14T02:00:15.562Z,1027.77
2016-03-14T02:01:15.565Z,1027.78
2016-03-14T02:02:15.567Z,1027.77
2016-03-14T02:03:15.570Z,1027.76
2016-03-14T02:04:15.573Z,1027.79
2016-03-14T02:05:15.592Z,1027.73
2016-03-14T02:06:15.594Z,1027.73
2016-03-14T02:07:15.597Z,1027.69
2016-03-14T02:08:15.600Z,1027.7
2016-03-14T02:09:15.602Z,1027.67
2016-03-14T02:10:15.605Z,1027.68
2016-03-14T02:11:15.623Z,1027.66
2016-03-14T02:12:15.625Z,1027.69
2016-03-14T02:13:15.628Z,1027.68
2016-03-14T02:14:15.631Z,1027.61
2016-03-14T02:15:15.633Z,1027.65
2016-03-14T02:16:15.652Z,1027.68
2016-03-14T02:17:15.655Z,1027.65
2016-03-14T02:18:15.657Z,1027.65
2016-03-14T02:19:15.660Z,1027.64
2016-03-14T02:20:15.663Z,1027.67
2016-03-14T02:21:15.665Z,1027.67
2016-03-14T02:22:15.684Z,1027.65
2016-03-14T02:23:15.686Z,1027.66
2016-03-14T02:24:15.690Z,1027.63
2016-03-14T02:25:15.692Z,1027.65
2016-03-14T02:26:15.695Z,1027.63
2016-03-14T02:27:15.698Z,1027.64
2016-03-14T02:28:15.715Z,1027.64
2016-03-14T02:29:15.718Z,1027.64
2016-03-14T02:30:15.721Z,1027.64
2016-03-14T02:31:15.723Z,1027.6
2016-03-14T02:32:15.726Z,1027.62
2016-03-14T02:33:15.728Z,1027.63
2016-03-14T02:34:15.748Z,1027.61
2016-03-14T02:35:15.750Z,1027.57
2016-03-14T02:36:15.753Z,1027.54
2016-03-14T02:37:15.756Z,1027.53
2016-03-14T02:38:15.758Z,1027.49
2016-03-14T02:39:15.777Z,1027.52
2016-03-14T02:40:15.780Z,1027.51
2016-03-14T02:41:15.782Z,1027.54
2016-03-14T02:42:15.799Z,1027.54
2016-03-14T02:43:15.788Z,1027.54
2016-03-14T02:44:15.805Z,1027.55
2016-03-14T02:45:15.808Z,1027.54
2016-03-14T02:46:15.811Z,1027.48
2016-03-14T02:47:15.813Z,1027.51
2016-03-14T02:48:15.808Z,1027.49
2016-03-14T02:49:15.799Z,1027.47
2016-03-14T02:50:15.804Z,1027.42
2016-03-14T02:51:15.794Z,1027.43
2016-03-14T02:52:15.785Z,1027.38
2016-03-14T02:53:15.779Z,1027.43
2016-03-14T02:54:15.793Z,1027.44
2016-03-14T02:55:15.775Z,1027.39
2016-03-14T02:56:15.789Z,1027.41
2016-03-14T02:57:15.787Z,1027.38
2016-03-14T02:58:15.786Z,1027.38
2016-03-14T02:59:15.787Z,1027.39
2016-03-14T03:00:15.789Z,1027.39
2016-03-14T03:01:15.806Z,1027.39
2016-03-14T03:02:15.807Z,1027.37
2016-03-14T03:03:15.809Z,1027.38
2016-03-14T03:04:15.811Z,1027.4
2016-03-14T03:05:15.812Z,1027.43
2016-03-14T03:06:15.830Z,1027.42
2016-03-14T03:07:15.833Z,1027.42
2016-03-14T03:08:15.835Z,1027.4
2016-03-14T03:09:15.838Z,1027.41
2016-03-14T03:10:15.840Z,1027.41
2016-03-14T03:11:15.858Z,1027.43
2016-03-14T03:12:15.860Z,1027.41
2016-03-14T03:13:15.864Z,1027.39
2016-03-14T03:14:15.866Z,1027.41
2016-03-14T03:15:15.869Z,1027.44
2016-03-14T03:16:15.871Z,1027.41
2016-03-14T03:17:15.891Z,1027.38
2016-03-14T03:18:15.893Z,1027.43
2016-03-14T03:19:15.896Z,1027.4
2016-03-14T03:20:15.898Z,1027.43
2016-03-14T03:21:15.901Z,1027.39
2016-03-14T03:22:15.903Z,1027.39
2016-03-14T03:23:15.922Z,1027.4
2016-03-14T03:24:15.925Z,1027.39
2016-03-14T03:25:15.943Z,1027.42
2016-03-14T03:26:15.930Z,1027.41
2016-03-14T03:27:15.933Z,1027.39
2016-03-14T03:28:15.950Z,1027.42
2016-03-14T03:29:15.953Z,1027.43
2016-03-14T03:30:15.956Z,1027.41
2016-03-14T03:31:15.959Z,1027.37
2016-03-14T03:32:15.962Z,1027.38
2016-03-14T03:33:15.964Z,1027.39
2016-03-14T03:34:15.983Z,1027.41
2016-03-14T03:35:15.986Z,1027.41
2016-03-14T03:36:15.989Z,1027.42
2016-03-14T03:37:15.991Z,1027.44
2016-03-14T03:38:15.994Z,1027.41
2016-03-14T03:39:15.996Z,1027.43
2016-03-14T03:40:16.030Z,1027.44
2016-03-14T03:41:16.017Z,1027.48
2016-03-14T03:42:16.020Z,1027.45
2016-03-14T03:43:16.022Z,1027.49
2016-03-14T03:44:16.025Z,1027.49
2016-03-14T03:45:16.043Z,1027.47
2016-03-14T03:46:16.046Z,1027.46
2016-03-14T03:47:16.048Z,1027.45
2016-03-14T03:48:16.052Z,1027.43
2016-03-14T03:49:16.054Z,1027.42
2016-03-14T03:50:16.073Z,1027.45
2016-03-14T03:51:16.075Z,1027.43
2016-03-14T03:52:16.079Z,1027.39
2016-03-14T03:53:16.081Z,1027.4
2016-03-14T03:54:16.084Z,1027.46
2016-03-14T03:55:16.101Z,1027.44
2016-03-14T03:56:16.089Z,1027.43
2016-03-14T03:57:16.106Z,1027.45
2016-03-14T03:58:16.109Z,1027.45
2016-03-14T03:59:16.112Z,1027.42
2016-03-14T04:00:16.115Z,1027.43
2016-03-14T04:01:16.133Z,1027.43
2016-03-14T04:02:16.136Z,1027.4
2016-03-14T04:03:16.138Z,1027.43
2016-03-14T04:04:16.141Z,1027.42
2016-03-14T04:05:16.160Z,1027.43
2016-03-14T04:06:16.147Z,1027.42
2016-03-14T04:07:16.165Z,1027.45
2016-03-14T04:08:16.168Z,1027.48
2016-03-14T04:09:16.171Z,1027.49
2016-03-14T04:10:16.174Z,1027.49
2016-03-14T04:11:16.177Z,1027.47
2016-03-14T04:12:16.194Z,1027.42
2016-03-14T04:13:16.196Z,1027.43
2016-03-14T04:14:16.199Z,1027.43
2016-03-14T04:15:16.202Z,1027.47
2016-03-14T04:16:16.221Z,1027.45
2016-03-14T04:17:16.208Z,1027.48
2016-03-14T04:18:16.227Z,1027.46
2016-03-14T04:19:16.228Z,1027.48
2016-03-14T04:20:16.231Z,1027.54
2016-03-14T04:21:16.234Z,1027.53
2016-03-14T04:22:16.237Z,1027.54
2016-03-14T04:23:16.255Z,1027.54
2016-03-14T04:24:16.258Z,1027.58
2016-03-14T04:25:16.260Z,1027.6
2016-03-14T04:26:16.263Z,1027.65
2016-03-14T04:27:16.266Z,1027.65
2016-03-14T04:28:16.269Z,1027.66
2016-03-14T04:29:16.287Z,1027.68
2016-03-14T04:30:16.290Z,1027.66
2016-03-14T04:31:16.292Z,1027.69
2016-03-14T04:32:16.295Z,1027.7
2016-03-14T04:33:16.298Z,1027.7
2016-03-14T04:34:16.317Z,1027.71
2016-03-14T04:35:16.319Z,1027.7
2016-03-14T04:36:16.322Z,1027.73
2016-03-14T04:37:16.324Z,1027.71
2016-03-14T04:38:16.327Z,1027.7
2016-03-14T04:39:16.345Z,1027.69
2016-03-14T04:40:16.348Z,1027.74
2016-03-14T04:41:16.350Z,1027.72
2016-03-14T04:42:16.353Z,1027.68
2016-03-14T04:43:16.355Z,1027.66
2016-03-14T04:44:16.375Z,1027.66
2016-03-14T04:45:16.377Z,1027.68
2016-03-14T04:46:16.380Z,1027.66
2016-03-14T04:47:16.382Z,1027.67
2016-03-14T04:48:16.385Z,1027.6
2016-03-14T04:49:16.387Z,1027.57
2016-03-14T04:50:16.406Z,1027.6
2016-03-14T04:51:16.409Z,1027.6
2016-03-14T04:52:16.412Z,1027.61
2016-03-14T04:53:16.414Z,1027.59
2016-03-14T04:54:16.417Z,1027.55
2016-03-14T04:55:16.420Z,1027.53
2016-03-14T04:56:16.422Z,1027.51
2016-03-14T04:57:16.440Z,1027.52
2016-03-14T04:58:16.443Z,1027.49
2016-03-14T04:59:16.445Z,1027.44
2016-03-14T05:00:16.448Z,1027.48
2016-03-14T05:01:16.467Z,1027.49
2016-03-14T05:02:16.470Z,1027.57
2016-03-14T05:03:16.473Z,1027.55
2016-03-14T05:04:16.475Z,1027.56
2016-03-14T05:05:16.478Z,1027.55
2016-03-14T05:06:16.480Z,1027.55
2016-03-14T05:07:16.498Z,1027.57
2016-03-14T05:08:16.501Z,1027.56
2016-03-14T05:09:16.504Z,1027.6
2016-03-14T05:10:16.522Z,1027.58
2016-03-14T05:11:16.509Z,1027.63
2016-03-14T05:12:16.527Z,1027.59
2016-03-14T05:13:16.530Z,1027.6
2016-03-14T05:14:16.533Z,1027.61
2016-03-14T05:15:16.536Z,1027.62
2016-03-14T05:16:16.538Z,1027.63
2016-03-14T05:17:16.541Z,1027.66
2016-03-14T05:18:16.559Z,1027.71
2016-03-14T05:19:16.563Z,1027.76
2016-03-14T05:20:16.565Z,1027.75
2016-03-14T05:21:16.568Z,1027.79
2016-03-14T05:22:16.570Z,1027.81
2016-03-14T05:23:16.573Z,1027.82
2016-03-14T05:24:16.590Z,1027.84
2016-03-14T05:25:16.593Z,1027.84
2016-03-14T05:26:16.596Z,1027.86
2016-03-14T05:27:16.599Z,1027.87
2016-03-14T05:28:16.601Z,1027.92
2016-03-14T05:29:16.620Z,1027.94
2016-03-14T05:30:16.622Z,1027.96
2016-03-14T05:31:16.625Z,1027.95
2016-03-14T05:32:16.628Z,1027.97
2016-03-14T05:33:16.631Z,1028
2016-03-14T05:34:16.649Z,1027.96
2016-03-14T05:35:16.652Z,1027.95
2016-03-14T05:36:16.655Z,1027.97
2016-03-14T05:37:16.658Z,1028.01
2016-03-14T05:38:16.661Z,1027.99
2016-03-14T05:39:16.663Z,1028
2016-03-14T05:40:16.681Z,1028
2016-03-14T05:41:16.683Z,1027.99
2016-03-14T05:42:16.686Z,1027.97
2016-03-14T05:43:16.689Z,1027.95
2016-03-14T05:44:16.708Z,1027.95
2016-03-14T05:45:16.710Z,1027.93
2016-03-14T05:46:16.713Z,1027.95
2016-03-14T05:47:16.715Z,1027.97
2016-03-14T05:48:16.718Z,1027.97
2016-03-14T05:49:16.721Z,1027.96
2016-03-14T05:50:16.723Z,1027.94
2016-03-14T05:51:16.741Z,1027.95
2016-03-14T05:52:16.744Z,1027.94
2016-03-14T05:53:16.747Z,1027.94
2016-03-14T05:54:16.749Z,1027.95
2016-03-14T05:55:16.752Z,1027.95
2016-03-14T05:56:16.755Z,1027.99
2016-03-14T05:57:16.773Z,1027.99
2016-03-14T05:58:16.776Z,1028.01
2016-03-14T05:59:16.778Z,1028
2016-03-14T06:00:16.781Z,1028
2016-03-14T06:01:16.784Z,1028
2016-03-14T06:02:16.803Z,1028.02
2016-03-14T06:03:16.805Z,1028.01
2016-03-14T06:04:16.808Z,1028.05
2016-03-14T06:05:16.810Z,1028.05
2016-03-14T06:06:16.819Z,1028.04
2016-03-14T06:07:16.837Z,1028.03
2016-03-14T06:08:16.839Z,1028.07
2016-03-14T06:09:16.842Z,1028.09
2016-03-14T06:10:16.844Z,1028.07
2016-03-14T06:11:16.847Z,1028.1
2016-03-14T06:12:16.849Z,1028.11
2016-03-14T06:13:16.869Z,1028.16
2016-03-14T06:14:16.871Z,1028.17
2016-03-14T06:15:16.874Z,1028.15
2016-03-14T06:16:16.876Z,1028.15
2016-03-14T06:17:16.879Z,1028.14
2016-03-14T06:18:16.881Z,1028.14
2016-03-14T06:19:16.885Z,1028.16
2016-03-14T06:20:16.902Z,1028.17
2016-03-14T06:21:16.905Z,1028.15
2016-03-14T06:22:16.907Z,1028.17
2016-03-14T06:23:16.910Z,1028.18
2016-03-14T06:24:16.913Z,1028.18
2016-03-14T06:25:16.932Z,1028.17
2016-03-14T06:26:16.934Z,1028.21
2016-03-14T06:27:16.937Z,1028.26
2016-03-14T06:28:16.939Z,1028.34
2016-03-14T06:29:16.942Z,1028.46
2016-03-14T06:30:16.961Z,1028.49
2016-03-14T06:31:16.964Z,1028.49
2016-03-14T06:32:16.967Z,1028.54
2016-03-14T06:33:16.969Z,1028.54
2016-03-14T06:34:16.987Z,1028.43
2016-03-14T06:35:16.989Z,1028.23
2016-03-14T06:36:16.992Z,1028.3
2016-03-14T06:37:16.995Z,1028.3
2016-03-14T06:38:16.998Z,1028.27
2016-03-14T06:39:17.016Z,1028.35
2016-03-14T06:40:17.019Z,1028.37
2016-03-14T06:41:17.021Z,1028.39
2016-03-14T06:42:17.041Z,1028.39
2016-03-14T06:43:17.043Z,1028.38
2016-03-14T06:44:17.046Z,1028.34
2016-03-14T06:45:17.048Z,1028.35
2016-03-14T06:46:17.051Z,1028.39
2016-03-14T06:47:17.068Z,1028.41
2016-03-14T06:48:17.071Z,1028.4
2016-03-14T06:49:17.074Z,1028.35
2016-03-14T06:50:17.093Z,1028.41
2016-03-14T06:51:17.095Z,1028.38
2016-03-14T06:52:17.082Z,1028.35
2016-03-14T06:53:17.100Z,1028.35
2016-03-14T06:54:17.103Z,1028.39
2016-03-14T06:55:17.106Z,1028.4
2016-03-14T06:56:17.109Z,1028.39
2016-03-14T06:57:17.111Z,1028.37
2016-03-14T06:58:17.129Z,1028.36
2016-03-14T06:59:17.132Z,1028.37
2016-03-14T07:00:17.135Z,1028.4
2016-03-14T07:01:17.138Z,1028.43
2016-03-14T07:02:17.156Z,1028.42
2016-03-14T07:03:17.159Z,1028.42
2016-03-14T07:04:17.161Z,1028.43
2016-03-14T07:05:17.164Z,1028.42
2016-03-14T07:06:17.167Z,1028.4
2016-03-14T07:07:17.186Z,1028.37
2016-03-14T07:08:17.189Z,1028.32
2016-03-14T07:09:17.191Z,1028.34
2016-03-14T07:10:17.194Z,1028.33
2016-03-14T07:11:17.211Z,1028.39
2016-03-14T07:12:17.214Z,1028.34
2016-03-14T07:13:17.232Z,1028.39
2016-03-14T07:14:17.220Z,1028.39
2016-03-14T07:15:17.222Z,1028.46
2016-03-14T07:16:17.225Z,1028.43
2016-03-14T07:17:17.243Z,1028.39
2016-03-14T07:18:17.247Z,1028.43
2016-03-14T07:19:17.249Z,1028.44
2016-03-14T07:20:17.252Z,1028.45
2016-03-14T07:21:17.270Z,1028.39
2016-03-14T07:22:17.273Z,1028.43
2016-03-14T07:23:17.275Z,1028.41
2016-03-14T07:24:17.279Z,1028.41
2016-03-14T07:25:17.281Z,1028.4
2016-03-14T07:26:17.299Z,1028.42
2016-03-14T07:27:17.301Z,1028.39
2016-03-14T07:28:17.304Z,1028.43
2016-03-14T07:29:17.306Z,1028.44
2016-03-14T07:30:17.309Z,1028.48
2016-03-14T07:31:17.328Z,1028.43
2016-03-14T07:32:17.331Z,1028.46
2016-03-14T07:33:17.334Z,1028.42
2016-03-14T07:34:17.336Z,1028.42
2016-03-14T07:35:17.354Z,1028.42
2016-03-14T07:36:17.357Z,1028.44
2016-03-14T07:37:17.360Z,1028.42
2016-03-14T07:38:17.362Z,1028.4
2016-03-14T07:39:17.364Z,1028.37
2016-03-14T07:40:17.383Z,1028.42
2016-03-14T07:41:17.386Z,1028.36
2016-03-14T07:42:17.389Z,1028.39
2016-03-14T07:43:17.392Z,1028.35
2016-03-14T07:44:17.394Z,1028.36
2016-03-14T07:45:17.413Z,1028.33
2016-03-14T07:46:17.415Z,1028.3
2016-03-14T07:47:17.418Z,1028.31
2016-03-14T07:48:17.421Z,1028.25
2016-03-14T07:49:17.439Z,1028.26
2016-03-14T07:50:17.441Z,1028.23
2016-03-14T07:51:17.444Z,1028.25
2016-03-14T07:52:17.447Z,1028.21
2016-03-14T07:53:17.466Z,1028.25
2016-03-14T07:54:17.468Z,1028.32
2016-03-14T07:55:17.471Z,1028.31
2016-03-14T07:56:17.473Z,1028.26
2016-03-14T07:57:17.476Z,1028.27
2016-03-14T07:58:17.494Z,1028.23
2016-03-14T07:59:17.498Z,1028.26
2016-03-14T08:00:17.515Z,1028.25
2016-03-14T08:01:17.518Z,1028.22
2016-03-14T08:02:17.520Z,1028.2
2016-03-14T08:03:17.523Z,1028.25
2016-03-14T08:04:17.526Z,1028.24
2016-03-14T08:05:17.529Z,1028.21
2016-03-14T08:06:17.544Z,1028.24
2016-03-14T08:07:17.547Z,1028.24
2016-03-14T08:08:17.549Z,1028.28
2016-03-14T08:09:17.568Z,1028.27
2016-03-14T08:10:17.570Z,1028.31
2016-03-14T08:11:17.573Z,1028.36
2016-03-14T08:12:17.575Z,1028.36
2016-03-14T08:13:17.594Z,1028.35
2016-03-14T08:14:17.596Z,1028.4
2016-03-14T08:15:17.599Z,1028.39
2016-03-14T08:16:17.618Z,1028.44
2016-03-14T08:17:17.621Z,1028.6
2016-03-14T08:18:17.623Z,1028.89
2016-03-14T08:19:17.626Z,1029.05
2016-03-14T08:20:17.628Z,1029.03
2016-03-14T08:21:17.646Z,1029.06
2016-03-14T08:22:17.649Z,1029.07
2016-03-14T08:23:17.668Z,1029.07
2016-03-14T08:24:17.670Z,1029.09
2016-03-14T08:25:17.689Z,1029.14
2016-03-14T08:26:17.692Z,1029.16
2016-03-14T08:27:17.710Z,1029.15
2016-03-14T08:28:17.712Z,1029.19
2016-03-14T08:29:17.731Z,1029.18
2016-03-14T08:30:17.748Z,1029.19
2016-03-14T08:31:17.751Z,1029.18
2016-03-14T08:32:17.770Z,1029.17
2016-03-14T08:33:17.773Z,1029.19
2016-03-14T08:34:17.791Z,1029.19
2016-03-14T08:35:17.809Z,1029.21
2016-03-14T08:36:17.812Z,1029.29
2016-03-14T08:37:17.830Z,1029.24
2016-03-14T08:38:17.849Z,1029.27
2016-03-14T08:39:17.852Z,1029.34
2016-03-14T08:40:17.870Z,1029.35
2016-03-14T08:41:17.873Z,1029.33
2016-03-14T08:42:17.891Z,1029.32
2016-03-14T08:43:17.909Z,1029.26
2016-03-14T08:44:17.912Z,1029.32
2016-03-14T08:45:17.930Z,1029.27
2016-03-14T08:46:17.933Z,1029.24
2016-03-14T08:47:17.951Z,1029.23
2016-03-14T08:48:17.969Z,1029.19
2016-03-14T08:49:17.972Z,1029.13
2016-03-14T08:50:17.991Z,1029.18
2016-03-14T08:51:17.993Z,1029.17
2016-03-14T08:52:18.012Z,1029.27
2016-03-14T08:53:18.015Z,1029.25
2016-03-14T08:54:18.032Z,1029.33
2016-03-14T08:55:18.035Z,1029.2
2016-03-14T08:56:18.054Z,1028.95
2016-03-14T08:57:18.071Z,1028.9
2016-03-14T08:58:18.074Z,1028.98
2016-03-14T08:59:18.093Z,1028.95
2016-03-14T09:00:18.112Z,1028.96
2016-03-14T09:01:18.114Z,1028.97
2016-03-14T09:02:18.132Z,1028.99
2016-03-14T09:03:18.150Z,1029.03
2016-03-14T09:04:18.153Z,1029.02
2016-03-14T09:05:18.172Z,1029
2016-03-14T09:06:18.190Z,1029.21
2016-03-14T09:07:18.192Z,1030.1
2016-03-14T09:08:18.211Z,1030.95
2016-03-14T09:09:18.228Z,1031.27
2016-03-14T09:10:18.247Z,1031.44
2016-03-14T09:11:18.266Z,1031.49
2016-03-14T09:12:18.268Z,1031.58
2016-03-14T09:13:18.286Z,1031.6
2016-03-14T09:14:18.305Z,1031.65
2016-03-14T09:15:18.308Z,1031.66
2016-03-14T09:16:18.326Z,1031.65
2016-03-14T09:17:18.344Z,1031.58
2016-03-14T09:18:18.362Z,1031.5
2016-03-14T09:19:18.381Z,1031.52
2016-03-14T09:20:18.399Z,1031.46
2016-03-14T09:21:18.402Z,1031.39
2016-03-14T09:22:18.420Z,1031.03
2016-03-14T09:23:18.423Z,1029.84
2016-03-14T09:24:18.440Z,1028.73
2016-03-14T09:25:18.444Z,1028.44
2016-03-14T09:26:18.462Z,1028.41
2016-03-14T09:27:18.481Z,1028.35
2016-03-14T09:28:18.483Z,1028.31
2016-03-14T09:29:18.501Z,1028.19
2016-03-14T09:30:18.504Z,1028.2
2016-03-14T09:31:18.522Z,1028.21
2016-03-14T09:32:18.526Z,1028.24
2016-03-14T09:33:18.528Z,1028.24
2016-03-14T09:34:18.546Z,1028.25
2016-03-14T09:35:18.548Z,1028.24
2016-03-14T09:36:18.567Z,1028.21
2016-03-14T09:37:18.570Z,1028.22
2016-03-14T09:38:18.573Z,1028.19
2016-03-14T09:39:18.591Z,1028.24
2016-03-14T09:40:18.594Z,1028.2
2016-03-14T09:41:18.612Z,1028.24
2016-03-14T09:42:18.615Z,1028.25
2016-03-14T09:43:18.617Z,1028.21
2016-03-14T09:44:18.636Z,1028.2
2016-03-14T09:45:18.639Z,1028.25
2016-03-14T09:46:18.657Z,1028.17
2016-03-14T09:47:18.660Z,1028.18
2016-03-14T09:48:18.662Z,1028.2
2016-03-14T09:49:18.665Z,1028.19
2016-03-14T09:50:18.683Z,1028.17
2016-03-14T09:51:18.685Z,1028.15
2016-03-14T09:52:18.705Z,1028.1
2016-03-14T09:53:18.707Z,1028.07
2016-03-14T09:54:18.710Z,1028.09
2016-03-14T09:55:18.727Z,1028.11
2016-03-14T09:56:18.730Z,1028.11
2016-03-14T09:57:18.732Z,1028.09
2016-03-14T09:58:18.751Z,1028.08
2016-03-14T09:59:18.754Z,1028.12
2016-03-14T10:00:18.757Z,1028.1
2016-03-14T10:01:18.776Z,1028.08
2016-03-14T10:02:18.778Z,1028.01
2016-03-14T10:03:18.781Z,1028.03
2016-03-14T10:04:18.799Z,1028.03
2016-03-14T10:05:18.801Z,1028.04
2016-03-14T10:06:18.809Z,1027.97
2016-03-14T10:07:18.816Z,1027.98
2016-03-14T10:08:18.820Z,1027.98
2016-03-14T10:09:18.838Z,1027.99
2016-03-14T10:10:18.841Z,1027.95
2016-03-14T10:11:18.843Z,1027.91
2016-03-14T10:12:18.861Z,1027.91
2016-03-14T10:13:18.864Z,1027.94
2016-03-14T10:14:18.867Z,1027.97
2016-03-14T10:15:18.885Z,1027.98
2016-03-14T10:16:18.888Z,1027.92
2016-03-14T10:17:18.890Z,1027.94
2016-03-14T10:18:18.909Z,1027.94
2016-03-14T10:19:18.912Z,1027.87
2016-03-14T10:20:18.914Z,1027.88
2016-03-14T10:21:18.918Z,1027.79
2016-03-14T10:22:18.935Z,1027.84
2016-03-14T10:23:18.938Z,1027.91
2016-03-14T10:24:18.940Z,1027.85
2016-03-14T10:25:18.959Z,1027.85
2016-03-14T10:26:18.962Z,1027.78
2016-03-14T10:27:18.979Z,1027.75
2016-03-14T10:28:18.983Z,1027.74
2016-03-14T10:29:19.001Z,1027.63
2016-03-14T10:30:18.988Z,1027.71
2016-03-14T10:31:19.006Z,1027.67
2016-03-14T10:32:19.009Z,1027.67
2016-03-14T10:33:19.012Z,1027.69
2016-03-14T10:34:19.015Z,1027.68
2016-03-14T10:35:19.033Z,1027.66
2016-03-14T10:36:19.035Z,1027.65
2016-03-14T10:37:19.053Z,1027.64
2016-03-14T10:38:19.056Z,1027.62
2016-03-14T10:39:19.059Z,1027.61
2016-03-14T10:40:19.061Z,1027.62
2016-03-14T10:41:19.080Z,1027.62
2016-03-14T10:42:19.083Z,1027.64
2016-03-14T10:43:19.086Z,1027.67
2016-03-14T10:44:19.104Z,1027.6
2016-03-14T10:45:19.107Z,1027.6
2016-03-14T10:46:19.110Z,1027.61
2016-03-14T10:47:19.127Z,1027.6
2016-03-14T10:48:19.130Z,1027.59
2016-03-14T10:49:19.133Z,1027.59
2016-03-14T10:50:19.135Z,1027.57
2016-03-14T10:51:19.154Z,1027.53
2016-03-14T10:52:19.156Z,1027.54
2016-03-14T10:53:19.159Z,1027.51
2016-03-14T10:54:19.177Z,1027.51
2016-03-14T10:55:19.179Z,1027.48
2016-03-14T10:56:19.183Z,1027.47
2016-03-14T10:57:19.201Z,1027.47
2016-03-14T10:58:19.204Z,1027.43
2016-03-14T10:59:19.206Z,1027.41
2016-03-14T11:00:19.209Z,1027.4
2016-03-14T11:01:19.229Z,1027.37
2016-03-14T11:02:19.231Z,1027.41
2016-03-14T11:03:19.234Z,1027.37
2016-03-14T11:04:19.252Z,1027.37
2016-03-14T11:05:19.255Z,1027.35
2016-03-14T11:06:19.257Z,1027.37
2016-03-14T11:07:19.260Z,1027.35
2016-03-14T11:08:19.279Z,1027.28
2016-03-14T11:09:19.281Z,1027.28
2016-03-14T11:10:19.284Z,1027.31
2016-03-14T11:11:19.302Z,1027.33
2016-03-14T11:12:19.305Z,1027.28
2016-03-14T11:13:19.308Z,1027.28
2016-03-14T11:14:19.326Z,1027.27
2016-03-14T11:15:19.329Z,1027.25
2016-03-14T11:16:19.331Z,1027.25
2016-03-14T11:17:19.334Z,1027.22
2016-03-14T11:18:19.352Z,1027.22
2016-03-14T11:19:19.355Z,1027.18
2016-03-14T11:20:19.358Z,1027.19
2016-03-14T11:21:19.376Z,1027.21
2016-03-14T11:22:19.381Z,1027.16
2016-03-14T11:23:19.383Z,1027.12
2016-03-14T11:24:19.386Z,1027.11
2016-03-14T11:25:19.405Z,1027.07
2016-03-14T11:26:19.408Z,1027.09
2016-03-14T11:27:19.410Z,1027.03
2016-03-14T11:28:19.413Z,1026.99
2016-03-14T11:29:19.432Z,1027.01
2016-03-14T11:30:19.434Z,1027.01
2016-03-14T11:31:19.438Z,1027.01
2016-03-14T11:32:19.455Z,1026.97
2016-03-14T11:33:19.458Z,1026.93
2016-03-14T11:34:19.461Z,1026.94
2016-03-14T11:35:19.479Z,1026.96
2016-03-14T11:36:20.451Z,1026.96
2016-03-14T11:37:19.484Z,1026.98
2016-03-14T11:38:19.503Z,1026.95
2016-03-14T11:39:19.506Z,1026.91
2016-03-14T11:40:19.508Z,1026.86
2016-03-14T11:41:19.512Z,1026.84
2016-03-14T11:42:19.529Z,1026.92
2016-03-14T11:43:19.531Z,1026.91
2016-03-14T11:44:19.534Z,1026.93
2016-03-14T11:45:19.553Z,1026.87
2016-03-14T11:46:19.556Z,1026.87
2016-03-14T11:47:19.558Z,1026.9
2016-03-14T11:48:19.561Z,1026.94
2016-03-14T11:49:19.579Z,1026.88
2016-03-14T11:50:19.582Z,1026.81
2016-03-14T11:51:19.584Z,1026.87
2016-03-14T11:52:19.587Z,1026.76
2016-03-14T11:53:19.605Z,1026.75
2016-03-14T11:54:19.601Z,1026.78
2016-03-14T11:55:19.595Z,1026.75
2016-03-14T11:56:19.603Z,1026.75
2016-03-14T11:57:19.596Z,1026.71
2016-03-14T11:58:19.595Z,1026.73
2016-03-14T11:59:19.607Z,1026.68
2016-03-14T12:00:19.591Z,1026.66
2016-03-14T12:01:19.605Z,1026.66
2016-03-14T12:02:19.604Z,1026.61
2016-03-14T12:03:19.603Z,1026.6
2016-03-14T12:04:19.604Z,1026.53
2016-03-14T12:05:19.621Z,1026.54
2016-03-14T12:06:19.623Z,1026.48
2016-03-14T12:07:19.625Z,1026.5
2016-03-14T12:08:19.641Z,1026.46